Time;durP1;ratioP1;P1;durP2;ratioP2;P2;SDS_P1;SDS_P2;PMS_P1;PMS_P2;Temp;Humidity;BMP_temperature;BMP_pressure;BME280_temperature;BME280_humidity;BME280_pressure;Samples;Min_cycle;Max_cycle;Signal;HPM_P1;HPM_P2
2023/10/09 00:01:27;;;;;;;11.57;6.60;;;19.40;67.00;;;;;;4990055;28;19922;-50
2023/10/09 00:04:02;;;;;;;10.48;6.20;;;19.30;66.60;;;;;;4989349;28;20061;-50
2023/10/09 00:06:38;;;;;;;8.43;6.18;;;19.30;66.90;;;;;;4986206;28;20058;-49
2023/10/09 00:12:22;;;;;;;;;;;;;;;;;;;;;
2023/10/09 00:15:07;;;;;;;9.68;6.63;;;19.20;67.10;;;;;;4990443;28;20058;-51
2023/10/09 00:17:53;;;;;;;12.75;7.40;;;19.10;67.00;;;;;;4981042;28;20592;-49
2023/10/09 00:20:38;;;;;;;9.38;6.35;;;19.10;67.20;;;;;;4986531;28;20097;-49
2023/10/09 00:23:17;;;;;;;10.63;5.85;;;19.00;67.30;;;;;;4987588;28;20065;-52
2023/10/09 00:26:16;;;;;;;8.00;5.95;;;19.00;67.70;;;;;;4985016;28;20070;-53
2023/10/09 00:28:57;;;;;;;11.75;6.45;;;18.90;67.60;;;;;;4971897;28;20661;-51
2023/10/09 00:31:29;;;;;;;9.10;6.40;;;18.90;67.50;;;;;;4987144;28;20100;-51
2023/10/09 00:34:25;;;;;;;9.32;6.10;;;18.90;67.70;;;;;;4987623;28;20041;-50
2023/10/09 00:37:04;;;;;;;8.65;5.65;;;18.90;68.00;;;;;;4985231;28;20493;-49
2023/10/09 00:42:21;;;;;;;8.75;5.70;;;18.90;68.00;;;;;;4983602;28;20046;-50
2023/10/09 00:45:09;;;;;;;8.85;6.32;;;18.90;68.30;;;;;;4989198;28;20575;-51
2023/10/09 00:47:43;;;;;;;9.27;6.35;;;18.90;68.30;;;;;;4985690;28;20093;-52
2023/10/09 00:53:09;;;;;;;9.93;5.78;;;18.90;68.40;;;;;;4984473;28;20042;-48
2023/10/09 00:58:26;;;;;;;8.95;5.50;;;18.90;68.30;;;;;;4980686;28;20049;-49
2023/10/09 01:00:59;;;;;;;7.80;5.75;;;19.00;68.60;;;;;;4988655;28;20038;-50
2023/10/09 01:03:51;;;;;;;9.50;6.10;;;19.00;68.20;;;;;;4987789;28;20713;-53
2023/10/09 01:06:28;;;;;;;8.13;5.40;;;19.00;68.10;;;;;;4996784;28;20046;-52
2023/10/09 01:09:07;;;;;;;11.68;5.45;;;19.10;68.30;;;;;;4979931;28;20065;-51
2023/10/09 01:14:45;;;;;;;8.07;5.50;;;19.10;68.20;;;;;;4987314;28;20054;-52
2023/10/09 01:17:35;;;;;;;7.90;5.50;;;19.10;68.10;;;;;;4986882;28;20038;-52
2023/10/09 01:20:16;;;;;;;7.93;5.50;;;19.20;68.00;;;;;;4995196;28;20046;-53
2023/10/09 01:22:55;;;;;;;9.85;6.05;;;19.20;67.90;;;;;;4990996;28;20049;-51
2023/10/09 01:25:43;;;;;;;10.43;5.93;;;19.20;67.80;;;;;;4991957;28;20081;-52
2023/10/09 01:28:25;;;;;;;;;;;;;;;;;;;;;
2023/10/09 01:30:57;;;;;;;7.68;5.18;;;19.20;67.90;;;;;;4987900;28;20113;-53
2023/10/09 01:33:27;;;;;;;8.13;5.45;;;19.30;67.90;;;;;;4988667;28;20050;-50
2023/10/09 01:36:02;;;;;;;7.80;5.45;;;19.20;67.80;;;;;;4988712;28;20401;-53
2023/10/09 01:38:44;;;;;;;7.88;5.40;;;19.20;67.80;;;;;;4986499;28;20761;-49
2023/10/09 01:41:21;;;;;;;7.20;5.45;;;19.30;67.80;;;;;;4991275;28;20587;-52
2023/10/09 01:44:00;;;;;;;7.63;5.57;;;19.30;67.90;;;;;;4991299;28;20500;-50
2023/10/09 01:46:37;;;;;;;7.67;5.13;;;19.30;67.80;;;;;;4991587;28;20512;-52
2023/10/09 01:49:16;;;;;;;6.50;4.97;;;19.30;67.90;;;;;;4988656;28;20042;-52
2023/10/09 01:51:58;;;;;;;8.80;5.78;;;19.30;67.70;;;;;;4991934;28;20097;-51
2023/10/09 01:54:37;;;;;;;7.60;6.05;;;19.30;67.80;;;;;;4993419;28;20109;-51
2023/10/09 01:57:15;;;;;;;6.60;5.43;;;19.30;67.80;;;;;;4988862;28;20046;-49
2023/10/09 01:59:59;;;;;;;6.78;4.57;;;19.40;67.90;;;;;;4995617;28;20038;-53
2023/10/09 02:02:45;;;;;;;8.57;4.72;;;19.30;68.00;;;;;;4993512;28;20513;-52
2023/10/09 02:05:53;;;;;;;7.38;5.07;;;19.30;67.70;;;;;;4976191;28;20531;-52
2023/10/09 02:08:29;;;;;;;8.57;5.32;;;19.30;67.90;;;;;;4981713;28;20054;-53
2023/10/09 02:11:07;;;;;;;8.02;5.68;;;19.30;67.90;;;;;;4990908;28;20066;-51
2023/10/09 02:13:41;;;;;;;8.93;5.40;;;19.30;67.90;;;;;;4991076;28;20066;-53
2023/10/09 02:16:44;;;;;;;7.65;5.68;;;19.30;67.80;;;;;;4991205;28;20045;-51
2023/10/09 02:19:38;;;;;;;8.98;5.32;;;19.30;67.80;;;;;;4983404;28;20137;-51
2023/10/09 02:22:15;;;;;;;8.02;5.43;;;19.30;68.00;;;;;;4985151;28;20065;-51
2023/10/09 02:30:15;;;;;;;8.57;5.63;;;19.30;68.10;;;;;;4985117;28;20065;-49
2023/10/09 02:32:52;;;;;;;7.03;5.35;;;19.30;68.10;;;;;;4992445;28;20073;-53
2023/10/09 02:35:38;;;;;;;9.27;5.95;;;19.20;68.30;;;;;;4984737;28;20058;-51
2023/10/09 02:38:14;;;;;;;8.23;5.57;;;19.20;68.20;;;;;;4989657;28;20034;-50
2023/10/09 02:43:44;;;;;;;7.53;5.97;;;19.20;68.20;;;;;;4991972;28;20057;-53
2023/10/09 02:46:18;;;;;;;8.88;5.53;;;19.20;68.30;;;;;;4991232;28;20567;-50
2023/10/09 02:48:54;;;;;;;9.35;5.25;;;19.20;68.40;;;;;;4986598;28;20449;-53
2023/10/09 02:54:26;;;;;;;7.88;5.72;;;19.20;68.50;;;;;;4985090;28;20042;-52
2023/10/09 02:57:21;;;;;;;11.55;5.38;;;19.20;68.50;;;;;;4981541;28;20035;-51
2023/10/09 03:00:08;;;;;;;7.33;4.90;;;19.20;68.50;;;;;;4988578;28;20126;-51
2023/10/09 03:02:49;;;;;;;7.60;5.53;;;19.20;68.40;;;;;;4990487;28;20477;-53
2023/10/09 03:05:23;;;;;;;7.20;5.25;;;19.20;68.40;;;;;;4989033;28;20050;-50
2023/10/09 03:08:08;;;;;;;9.10;6.70;;;19.20;68.60;;;;;;4984841;28;20043;-51
2023/10/09 03:10:47;;;;;;;7.50;5.03;;;19.20;68.50;;;;;;4987558;28;20629;-52
2023/10/09 03:13:21;;;;;;;8.85;6.32;;;19.20;68.40;;;;;;4992328;28;20046;-49
2023/10/09 03:16:01;;;;;;;;;;;;;;;;;;;;;
2023/10/09 03:18:40;;;;;;;8.07;5.78;;;19.20;68.60;;;;;;4984884;28;20048;-53
2023/10/09 03:21:27;;;;;;;7.72;5.07;;;19.20;68.60;;;;;;4985605;28;20038;-49
2023/10/09 03:24:06;;;;;;;8.82;5.32;;;19.20;68.60;;;;;;4990612;28;20678;-50
2023/10/09 03:26:37;;;;;;;7.80;5.35;;;19.20;68.60;;;;;;4986787;28;20136;-52
2023/10/09 03:29:19;;;;;;;8.65;5.40;;;19.20;68.60;;;;;;4989322;28;20054;-51
2023/10/09 03:31:51;;;;;;;9.38;5.80;;;19.20;68.60;;;;;;4989878;28;20798;-52
2023/10/09 03:34:30;;;;;;;5.65;5.07;;;19.20;68.60;;;;;;4990803;28;20070;-53
2023/10/09 03:37:21;;;;;;;7.18;5.20;;;19.20;68.70;;;;;;4987717;28;20527;-51
2023/10/09 03:39:54;;;;;;;10.77;5.97;;;19.20;68.80;;;;;;4985257;28;20045;-52
2023/10/09 03:42:36;;;;;;;7.68;5.47;;;19.20;68.60;;;;;;4990462;28;20053;-53
2023/10/09 03:45:29;;;;;;;7.38;5.28;;;19.20;68.70;;;;;;4989487;28;20049;-52
2023/10/09 03:48:08;;;;;;;7.32;5.05;;;19.20;68.70;;;;;;4986681;28;20535;-53
2023/10/09 03:50:43;;;;;;;6.78;5.15;;;19.20;68.50;;;;;;4988673;28;20061;-49
2023/10/09 03:53:22;;;;;;;6.47;5.38;;;19.20;68.70;;;;;;4991836;28;20492;-53
2023/10/09 03:56:00;;;;;;;7.53;5.72;;;19.20;68.60;;;;;;4988327;28;20045;-51
2023/10/09 03:58:34;;;;;;;9.32;5.72;;;19.20;68.70;;;;;;4986202;28;20092;-53
2023/10/09 04:01:38;;;;;;;7.75;5.35;;;19.20;68.70;;;;;;4982600;28;20038;-52
2023/10/09 04:04:13;;;;;;;7.85;6.13;;;19.10;68.80;;;;;;4990552;28;20045;-53
2023/10/09 04:06:56;;;;;;;7.15;4.82;;;19.20;68.60;;;;;;4985260;28;20713;-52
2023/10/09 04:09:39;;;;;;;7.85;5.30;;;19.20;68.60;;;;;;4985706;28;20050;-51
2023/10/09 04:12:21;;;;;;;9.00;5.35;;;19.20;68.60;;;;;;4984921;28;20046;-52
2023/10/09 04:18:20;;;;;;;9.85;5.82;;;19.10;68.50;;;;;;4953698;28;20109;-53
2023/10/09 04:21:35;;;;;;;8.77;5.68;;;19.20;68.60;;;;;;4988654;28;20050;-53
2023/10/09 04:23:59;;;;;;;9.30;5.25;;;19.10;68.40;;;;;;4984986;28;20550;-53
2023/10/09 04:26:29;;;;;;;7.10;5.18;;;19.10;68.40;;;;;;4983806;28;20598;-49
2023/10/09 04:29:10;;;;;;;8.38;6.07;;;19.20;68.40;;;;;;4988734;28;20041;-50
2023/10/09 04:31:53;;;;;;;8.88;5.75;;;19.20;68.60;;;;;;4984615;28;20062;-49
2023/10/09 04:34:48;;;;;;;7.75;5.60;;;19.10;68.30;;;;;;4978638;28;20053;-50
2023/10/09 04:37:36;;;;;;;10.90;6.20;;;19.10;68.40;;;;;;4983196;28;20035;-50
2023/10/09 04:43:06;;;;;;;6.90;5.47;;;19.10;68.40;;;;;;4981532;28;20639;-50
2023/10/09 04:46:07;;;;;;;8.27;5.32;;;19.10;68.30;;;;;;4984428;28;20058;-48
2023/10/09 04:48:46;;;;;;;8.65;5.63;;;19.10;68.30;;;;;;4987172;28;20128;-50
2023/10/09 04:51:36;;;;;;;9.80;6.25;;;19.10;68.40;;;;;;4969763;28;20054;-52
2023/10/09 04:54:33;;;;;;;6.60;5.78;;;19.10;68.40;;;;;;4983588;28;20118;-53
2023/10/09 04:57:17;;;;;;;10.00;5.97;;;19.10;68.60;;;;;;4986729;28;20048;-51
2023/10/09 05:00:00;;;;;;;8.70;6.65;;;19.10;68.60;;;;;;4987795;28;20049;-52
2023/10/09 05:02:54;;;;;;;10.05;5.97;;;19.10;68.40;;;;;;4988882;28;20089;-50
2023/10/09 05:17:01;;;;;;;7.38;5.97;;;19.10;68.40;;;;;;4981683;28;20513;-53
2023/10/09 05:22:53;;;;;;;;;;;;;;;;;;;;;
2023/10/09 05:28:48;;;;;;;9.32;6.28;;;19.10;68.30;;;;;;4977664;28;20550;-49
2023/10/09 05:34:08;;;;;;;;;;;19.00;68.30;;;;;;4980646;28;20125;-49
2023/10/09 05:36:49;;;;;;;10.02;5.70;;;19.10;68.10;;;;;;4982053;28;19976;-52
2023/10/09 05:40:10;;;;;;;9.68;7.03;;;19.10;68.00;;;;;;4977420;28;20089;-52
2023/10/09 05:42:28;;;;;;;10.75;7.15;;;19.10;68.20;;;;;;4983312;28;20061;-51
2023/10/09 06:06:01;;;;;;;9.43;6.38;;;19.10;68.40;;;;;;4981247;28;20046;-53
2023/10/09 06:09:22;;;;;;;9.02;6.78;;;19.10;68.40;;;;;;4972309;28;20061;-51
2023/10/09 06:11:49;;;;;;;8.57;6.55;;;19.10;68.40;;;;;;4991319;28;20185;-52
2023/10/09 06:17:59;;;;;;;11.55;7.30;;;19.10;68.40;;;;;;4987324;28;20052;-50
2023/10/09 06:21:08;;;;;;;9.80;7.22;;;19.10;68.40;;;;;;4990357;28;20214;-53
2023/10/09 06:24:08;;;;;;;12.07;6.63;;;19.10;68.40;;;;;;4975491;28;20046;-51
2023/10/09 06:27:12;;;;;;;8.73;6.15;;;19.20;68.40;;;;;;4992608;28;20038;-51
2023/10/09 06:29:54;;;;;;;10.77;6.93;;;19.20;68.40;;;;;;4983720;28;20049;-51
2023/10/09 06:35:16;;;;;;;8.77;7.03;;;19.20;68.40;;;;;;4977738;28;20092;-53
2023/10/09 06:43:42;;;;;;;8.18;6.20;;;19.30;68.60;;;;;;4983941;28;20042;-52
2023/10/09 06:49:36;;;;;;;9.32;6.72;;;19.30;68.60;;;;;;4986577;28;20050;-52
2023/10/09 06:52:56;;;;;;;9.70;7.15;;;19.30;68.50;;;;;;4981886;28;20053;-53
2023/10/09 06:55:32;;;;;;;8.88;6.88;;;19.30;68.40;;;;;;4982080;28;20476;-53
2023/10/09 06:58:27;;;;;;;10.93;7.55;;;19.30;68.40;;;;;;4983245;28;20038;-53
2023/10/09 07:04:18;;;;;;;8.93;6.15;;;19.40;69.10;;;;;;4983669;28;20135;-53
2023/10/09 07:06:52;;;;;;;9.77;7.18;;;19.40;68.40;;;;;;4986683;28;20523;-52
2023/10/09 07:09:21;;;;;;;;;;;19.40;68.40;;;;;;4986496;28;20097;-53
2023/10/09 07:16:58;;;;;;;10.38;7.30;;;19.50;68.10;;;;;;4986785;28;20042;-52
2023/10/09 07:22:55;;;;;;;9.40;7.30;;;19.50;68.30;;;;;;4986233;28;20416;-50
2023/10/09 07:25:40;;;;;;;10.05;6.57;;;19.50;68.40;;;;;;4984484;28;20117;-51
2023/10/09 07:31:00;;;;;;;11.70;6.07;;;19.50;68.30;;;;;;4991059;28;20397;-50
2023/10/09 07:33:56;;;;;;;10.63;7.15;;;19.60;68.30;;;;;;4991652;28;20053;-53
2023/10/09 07:36:54;;;;;;;9.30;7.25;;;19.60;68.20;;;;;;4989205;28;20507;-52
2023/10/09 07:39:34;;;;;;;8.75;6.75;;;19.60;68.30;;;;;;4988876;28;20066;-53
2023/10/09 07:42:19;;;;;;;11.30;6.22;;;19.60;68.40;;;;;;4991048;28;20089;-53
2023/10/09 07:50:49;;;;;;;12.40;6.35;;;19.70;68.10;;;;;;4980165;28;20093;-53
2023/10/09 07:53:43;;;;;;;12.70;7.72;;;19.70;68.00;;;;;;4975705;28;20575;-52
2023/10/09 07:56:38;;;;;;;11.38;7.47;;;19.70;68.00;;;;;;4974711;28;20538;-53
2023/10/09 07:59:11;;;;;;;10.52;6.35;;;19.70;67.90;;;;;;4985682;28;20416;-51
2023/10/09 08:01:58;;;;;;;10.82;7.18;;;19.80;68.00;;;;;;4983528;28;20057;-52
2023/10/09 08:04:38;;;;;;;9.43;6.80;;;19.80;67.80;;;;;;4990290;28;20097;-53
2023/10/09 08:07:37;;;;;;;8.68;6.50;;;19.80;67.60;;;;;;4980012;28;20070;-52
2023/10/09 08:16:21;;;;;;;9.15;6.28;;;19.90;67.40;;;;;;4983493;28;20046;-53
2023/10/09 08:19:19;;;;;;;12.07;7.05;;;20.00;67.30;;;;;;4988454;28;20063;-51
2023/10/09 08:25:04;;;;;;;9.30;6.82;;;20.00;67.10;;;;;;4989668;28;20042;-53
2023/10/09 08:33:00;;;;;;;9.73;6.75;;;20.10;67.30;;;;;;4988991;28;20118;-52
2023/10/09 08:35:48;;;;;;;9.65;7.18;;;20.10;67.50;;;;;;4989937;28;20500;-50
2023/10/09 08:38:23;;;;;;;9.68;6.78;;;20.20;67.60;;;;;;4979670;28;20102;-50
2023/10/09 08:41:29;;;;;;;;;;;20.20;67.60;;;;;;4985799;28;20117;-51
2023/10/09 08:43:57;;;;;;;11.25;6.95;;;20.40;67.40;;;;;;4982493;28;19922;-52
2023/10/09 08:46:28;;;;;;;11.00;7.32;;;20.30;66.70;;;;;;4984602;28;20050;-53
2023/10/09 08:49:10;;;;;;;10.55;6.45;;;20.30;66.70;;;;;;4981166;28;20053;-49
2023/10/09 08:51:47;;;;;;;9.88;7.35;;;20.30;66.70;;;;;;4973145;28;20529;-52
2023/10/09 08:54:53;;;;;;;8.50;6.50;;;20.30;66.80;;;;;;4987987;28;20043;-53
2023/10/09 08:57:31;;;;;;;10.07;7.00;;;20.40;67.00;;;;;;4973573;28;20108;-53
2023/10/09 09:00:12;;;;;;;8.10;7.15;;;20.40;67.20;;;;;;4983814;28;20031;-52
2023/10/09 09:02:52;;;;;;;9.50;6.95;;;20.50;67.10;;;;;;4985058;28;20045;-52
2023/10/09 09:05:29;;;;;;;10.02;8.02;;;20.50;67.70;;;;;;4989635;28;20065;-51
2023/10/09 09:08:02;;;;;;;10.85;7.55;;;20.50;67.00;;;;;;4982997;28;20057;-52
2023/10/09 09:10:46;;;;;;;11.68;8.90;;;20.60;67.00;;;;;;4985650;28;20045;-50
2023/10/09 09:13:23;;;;;;;11.38;8.32;;;20.60;67.10;;;;;;4988806;28;20042;-52
2023/10/09 09:15:53;;;;;;;9.10;7.25;;;20.70;66.90;;;;;;4989401;28;20034;-51
2023/10/09 09:18:31;;;;;;;10.43;8.23;;;20.80;66.90;;;;;;4984385;28;20054;-52
2023/10/09 09:21:21;;;;;;;11.45;8.07;;;20.90;66.70;;;;;;4984642;28;20296;-52
2023/10/09 09:24:01;;;;;;;12.77;8.68;;;20.90;66.40;;;;;;4989765;28;20038;-52
2023/10/09 09:27:09;;;;;;;13.50;8.43;;;21.00;66.30;;;;;;4980740;28;20136;-52
2023/10/09 09:29:41;;;;;;;11.48;7.70;;;21.10;66.00;;;;;;4983999;28;20544;-52
2023/10/09 09:32:35;;;;;;;13.75;7.65;;;21.10;65.60;;;;;;4984388;28;20058;-52
2023/10/09 09:35:20;;;;;;;13.18;9.05;;;21.20;65.10;;;;;;4983518;28;20100;-51
2023/10/09 09:38:06;;;;;;;10.60;8.20;;;21.30;65.30;;;;;;4988913;28;20197;-52
2023/10/09 09:40:42;;;;;;;9.00;7.95;;;21.40;65.30;;;;;;4987022;28;20037;-52
2023/10/09 09:43:23;;;;;;;9.90;7.57;;;21.40;64.80;;;;;;4985266;28;20039;-52
2023/10/09 09:45:56;;;;;;;9.85;7.97;;;21.50;64.70;;;;;;4992714;28;20066;-52
2023/10/09 09:49:05;;;;;;;16.27;8.02;;;21.50;64.40;;;;;;4985491;28;20054;-50
2023/10/09 09:51:34;;;;;;;12.10;8.23;;;21.60;64.50;;;;;;4992451;28;20520;-52
2023/10/09 09:54:10;;;;;;;10.27;7.40;;;21.60;64.30;;;;;;4984076;28;20401;-52
2023/10/09 09:57:08;;;;;;;10.73;7.20;;;21.70;64.30;;;;;;4979752;28;20041;-53
2023/10/09 09:59:49;;;;;;;8.73;6.97;;;21.80;63.70;;;;;;4983821;28;20488;-50
2023/10/09 10:02:33;;;;;;;11.60;7.13;;;21.90;63.70;;;;;;4988781;28;20572;-51
2023/10/09 10:05:06;;;;;;;11.40;7.63;;;21.90;63.20;;;;;;4993171;28;20089;-50
2023/10/09 10:07:55;;;;;;;10.80;8.00;;;22.00;63.20;;;;;;4990028;28;20084;-52
2023/10/09 10:10:57;;;;;;;10.27;7.40;;;22.10;63.10;;;;;;4989275;28;20068;-52
2023/10/09 10:14:10;;;;;;;8.73;6.72;;;22.20;63.20;;;;;;4988535;28;20543;-52
2023/10/09 10:17:16;;;;;;;8.95;7.53;;;22.20;63.00;;;;;;4964027;28;20054;-52
2023/10/09 10:22:50;;;;;;;9.43;7.30;;;22.40;62.90;;;;;;4990200;28;20112;-51
2023/10/09 10:25:45;;;;;;;;;;;;;;;;;;;;;
2023/10/09 10:28:42;;;;;;;8.05;6.80;;;22.40;62.20;;;;;;4983276;28;20478;-48
2023/10/09 10:31:19;;;;;;;9.43;7.05;;;22.40;62.10;;;;;;4982384;28;20161;-48
2023/10/09 10:34:10;;;;;;;12.35;7.80;;;22.50;62.20;;;;;;4990659;28;20129;-51
2023/10/09 10:37:11;;;;;;;7.85;6.07;;;22.50;62.20;;;;;;4990047;28;20042;-52
2023/10/09 10:39:59;;;;;;;9.50;6.95;;;22.50;62.20;;;;;;4987229;28;20122;-50
2023/10/09 10:42:57;;;;;;;9.48;6.68;;;22.60;62.20;;;;;;4985332;28;20408;-49
2023/10/09 10:45:43;;;;;;;9.07;6.40;;;22.60;62.60;;;;;;4990548;28;20077;-51
2023/10/09 10:48:37;;;;;;;8.57;6.40;;;22.70;62.50;;;;;;4989376;28;20483;-52
2023/10/09 10:51:11;;;;;;;8.02;6.70;;;22.70;62.20;;;;;;4984577;28;20038;-52
2023/10/09 10:53:57;;;;;;;8.40;6.47;;;22.80;62.40;;;;;;4986282;28;20127;-49
2023/10/09 10:56:45;;;;;;;11.02;6.82;;;22.80;61.70;;;;;;4985254;28;20112;-48
2023/10/09 10:59:28;;;;;;;11.25;8.15;;;22.90;61.80;;;;;;4990581;28;20125;-50
2023/10/09 11:05:23;;;;;;;11.05;6.22;;;23.00;61.30;;;;;;4989832;28;20045;-49
2023/10/09 11:08:00;;;;;;;8.10;5.85;;;23.10;60.80;;;;;;4989536;28;20046;-52
2023/10/09 11:10:35;;;;;;;7.13;5.90;;;23.10;60.40;;;;;;4989513;28;20133;-52
2023/10/09 11:15:57;;;;;;;7.70;5.07;;;23.20;60.80;;;;;;4990980;28;20038;-51
2023/10/09 11:18:45;;;;;;;8.00;6.35;;;23.20;60.70;;;;;;4991010;28;20045;-52
2023/10/09 11:21:50;;;;;;;8.25;6.25;;;23.30;59.70;;;;;;4990731;28;20042;-50
2023/10/09 11:24:36;;;;;;;14.05;7.38;;;23.30;60.00;;;;;;4987959;28;20045;-51
2023/10/09 11:27:26;;;;;;;9.88;6.68;;;23.40;59.90;;;;;;4984342;28;20045;-48
2023/10/09 11:30:21;;;;;;;8.55;6.55;;;23.40;60.10;;;;;;4988304;28;20105;-52
2023/10/09 11:33:05;;;;;;;9.38;6.22;;;23.40;59.70;;;;;;4990695;28;20061;-52
2023/10/09 11:35:40;;;;;;;7.88;5.28;;;23.50;60.10;;;;;;4990162;28;20138;-53
2023/10/09 11:38:26;;;;;;;10.65;6.18;;;23.50;60.20;;;;;;4985922;28;20038;-49
2023/10/09 11:41:23;;;;;;;9.27;5.95;;;23.60;59.70;;;;;;4990622;28;20042;-51
2023/10/09 11:43:56;;;;;;;8.93;6.82;;;23.70;59.30;;;;;;4989054;28;20451;-49
2023/10/09 11:46:37;;;;;;;8.43;6.78;;;23.70;59.30;;;;;;4990516;28;20126;-52
2023/10/09 11:49:31;;;;;;;10.90;6.70;;;23.70;58.80;;;;;;4990981;28;20121;-51
2023/10/09 11:55:07;;;;;;;8.95;6.03;;;23.80;58.50;;;;;;4991398;28;20038;-52
2023/10/09 11:57:44;;;;;;;9.43;6.80;;;23.80;58.50;;;;;;4990487;28;20668;-52
2023/10/09 12:00:30;;;;;;;7.68;5.95;;;23.80;58.50;;;;;;4986321;28;20540;-50
2023/10/09 12:03:05;;;;;;;10.95;5.97;;;23.80;58.70;;;;;;4991327;28;20031;-51
2023/10/09 12:05:44;;;;;;;6.57;5.32;;;23.80;59.10;;;;;;4990710;28;20054;-52
2023/10/09 12:08:30;;;;;;;;;;;23.80;58.90;;;;;;4980549;28;20075;-48
2023/10/09 12:11:01;;;;;;;8.70;5.60;;;23.90;59.50;;;;;;4985224;28;20028;-49
2023/10/09 12:13:46;;;;;;;10.10;6.30;;;23.90;58.80;;;;;;4977260;28;20086;-48
2023/10/09 12:16:32;;;;;;;8.68;6.00;;;24.00;58.70;;;;;;4981560;28;20038;-51
2023/10/09 12:19:18;;;;;;;9.63;6.47;;;24.00;58.60;;;;;;4984321;28;20089;-51
2023/10/09 12:21:50;;;;;;;9.55;7.28;;;24.00;58.70;;;;;;4988054;28;20093;-51
2023/10/09 12:24:27;;;;;;;11.15;6.13;;;24.10;58.40;;;;;;4991669;28;20045;-52
2023/10/09 12:27:02;;;;;;;10.95;7.00;;;24.10;58.00;;;;;;4985134;28;20392;-52
2023/10/09 12:29:31;;;;;;;7.65;6.28;;;24.10;57.80;;;;;;4989473;28;20058;-50
2023/10/09 12:31:59;;;;;;;10.48;6.43;;;24.10;58.00;;;;;;4990215;28;20066;-51
2023/10/09 12:34:39;;;;;;;7.75;5.88;;;24.10;58.10;;;;;;4990566;28;20485;-52
2023/10/09 12:37:21;;;;;;;10.65;7.00;;;24.10;58.20;;;;;;4988927;28;20108;-52
2023/10/09 12:40:11;;;;;;;8.93;6.43;;;24.20;58.00;;;;;;4983339;28;20512;-52
2023/10/09 12:42:48;;;;;;;10.98;7.05;;;24.20;58.70;;;;;;4990066;28;20045;-51
2023/10/09 12:45:26;;;;;;;9.50;7.35;;;24.20;57.60;;;;;;4988592;28;20049;-52
2023/10/09 12:48:08;;;;;;;11.70;6.63;;;24.20;57.60;;;;;;4986990;28;20105;-51
2023/10/09 12:50:45;;;;;;;9.82;6.03;;;24.20;57.30;;;;;;4988792;28;20420;-52
2023/10/09 12:53:17;;;;;;;8.07;5.75;;;24.10;57.80;;;;;;4990625;28;20053;-52
2023/10/09 12:55:56;;;;;;;10.50;6.50;;;24.10;58.10;;;;;;4989330;28;20052;-51
2023/10/09 12:58:37;;;;;;;8.10;5.90;;;24.10;58.10;;;;;;4988727;28;20047;-52
2023/10/09 13:01:24;;;;;;;7.38;5.75;;;24.10;57.90;;;;;;4989656;28;20049;-51
2023/10/09 13:03:56;;;;;;;9.85;6.43;;;24.10;57.60;;;;;;4988270;28;20122;-50
2023/10/09 13:06:31;;;;;;;7.38;5.75;;;24.20;57.70;;;;;;4989585;28;20587;-48
2023/10/09 13:09:09;;;;;;;7.55;6.03;;;24.10;57.80;;;;;;4982524;28;20057;-52
2023/10/09 13:11:51;;;;;;;6.97;6.07;;;24.10;58.00;;;;;;4989280;28;20057;-53
2023/10/09 13:14:34;;;;;;;11.45;7.13;;;24.20;58.30;;;;;;4990649;28;20126;-51
2023/10/09 13:17:10;;;;;;;10.30;6.40;;;24.30;57.90;;;;;;4979473;28;20396;-51
2023/10/09 13:19:43;;;;;;;10.95;6.32;;;24.30;58.20;;;;;;4989638;28;20041;-49
2023/10/09 13:22:23;;;;;;;8.80;5.65;;;24.30;58.30;;;;;;4993802;28;20057;-51
2023/10/09 13:25:08;;;;;;;9.52;7.10;;;24.30;58.40;;;;;;4994408;28;20057;-53
2023/10/09 13:28:05;;;;;;;9.90;6.78;;;24.40;58.20;;;;;;4990220;28;20108;-53
2023/10/09 13:30:49;;;;;;;8.93;6.15;;;24.50;58.00;;;;;;4993221;28;20077;-51
2023/10/09 13:33:21;;;;;;;8.80;6.43;;;24.50;58.00;;;;;;4993476;28;20062;-53
2023/10/09 13:35:56;;;;;;;11.35;6.70;;;24.60;58.00;;;;;;4987020;28;20047;-52
2023/10/09 13:38:43;;;;;;;8.93;6.40;;;24.70;57.90;;;;;;4991562;28;20053;-51
2023/10/09 13:41:20;;;;;;;10.02;7.35;;;24.80;57.60;;;;;;4992433;28;20046;-52
2023/10/09 13:43:58;;;;;;;8.93;6.40;;;24.90;57.70;;;;;;4990957;28;20044;-53
2023/10/09 13:46:42;;;;;;;;;;;25.10;57.20;;;;;;4991090;28;20428;-52
2023/10/09 13:52:18;;;;;;;11.27;6.13;;;25.20;58.00;;;;;;4982418;28;20057;-52
2023/10/09 13:54:50;;;;;;;8.98;6.90;;;25.40;57.30;;;;;;4985231;28;20505;-53
2023/10/09 13:57:22;;;;;;;;;;;25.60;56.70;;;;;;4988712;28;20038;-53
2023/10/09 13:59:55;;;;;;;8.88;6.45;;;25.90;57.50;;;;;;5014525;23;19972;-46
2023/10/09 14:02:35;;;;;;;11.35;7.13;;;26.10;56.20;;;;;;5006960;28;20398;-46
2023/10/09 14:05:08;;;;;;;9.25;6.55;;;26.30;55.30;;;;;;5009235;28;20519;-46
2023/10/09 14:07:45;;;;;;;10.23;6.72;;;26.40;54.70;;;;;;5007062;28;20044;-46
2023/10/09 14:10:49;;;;;;;9.35;6.63;;;26.40;54.20;;;;;;5013306;28;20040;-47
2023/10/09 14:13:25;;;;;;;9.88;6.82;;;26.40;53.80;;;;;;5016343;28;20073;-47
2023/10/09 14:16:02;;;;;;;9.30;6.47;;;26.40;54.40;;;;;;5017357;28;20088;-47
2023/10/09 14:18:34;;;;;;;8.48;6.72;;;26.70;54.70;;;;;;5023186;28;20116;-46
2023/10/09 14:21:25;;;;;;;9.43;6.75;;;27.00;54.40;;;;;;5020988;28;20053;-47
2023/10/09 14:23:59;;;;;;;10.15;6.50;;;27.30;54.20;;;;;;5019750;28;20064;-46
2023/10/09 14:26:35;;;;;;;9.88;6.60;;;27.70;54.00;;;;;;5022718;28;20092;-46
2023/10/09 14:29:19;;;;;;;7.38;6.65;;;28.20;53.10;;;;;;5022167;28;20431;-48
2023/10/09 14:32:03;;;;;;;;;;;28.70;53.30;;;;;;5019036;28;20054;-47
2023/10/09 14:34:50;;;;;;;9.30;5.70;;;29.10;55.00;;;;;;5015843;28;20490;-47
2023/10/09 14:37:42;;;;;;;9.50;5.47;;;29.60;52.20;;;;;;5013465;28;20045;-48
2023/10/09 14:40:14;;;;;;;9.50;6.22;;;30.00;50.60;;;;;;5018280;28;20518;-47
2023/10/09 14:42:45;;;;;;;8.30;6.50;;;30.10;49.20;;;;;;5019577;28;20034;-48
2023/10/09 14:45:44;;;;;;;;;;;;;;;;;;;;;
2023/10/09 14:48:45;;;;;;;11.63;5.97;;;30.00;48.50;;;;;;5018647;28;20458;-49
2023/10/09 14:51:13;;;;;;;8.18;6.65;;;29.90;48.50;;;;;;5017741;28;20042;-49
2023/10/09 14:54:15;;;;;;;10.80;7.13;;;29.80;48.60;;;;;;5011697;28;20045;-47
2023/10/09 14:56:57;;;;;;;11.23;7.05;;;29.70;48.30;;;;;;5014000;28;20567;-47
2023/10/09 14:59:46;;;;;;;;;;;;;;;;;;;;;
2023/10/09 15:02:23;;;;;;;10.20;7.32;;;29.50;48.20;;;;;;5011628;28;20521;-50
2023/10/09 15:04:55;;;;;;;8.20;6.30;;;29.30;48.30;;;;;;5014750;28;20040;-47
2023/10/09 15:07:35;;;;;;;8.93;6.43;;;29.20;48.80;;;;;;5011929;28;20475;-49
2023/10/09 15:10:13;;;;;;;11.13;6.47;;;29.20;49.10;;;;;;5016064;28;20068;-49
2023/10/09 15:12:53;;;;;;;9.65;6.40;;;29.40;49.60;;;;;;5012672;28;20069;-48
2023/10/09 15:15:25;;;;;;;8.77;6.63;;;29.60;48.90;;;;;;5011134;28;20053;-47
2023/10/09 15:17:59;;;;;;;8.75;7.15;;;29.80;48.60;;;;;;5012779;28;20043;-53
2023/10/09 15:20:46;;;;;;;7.75;6.50;;;29.80;47.80;;;;;;5016431;28;20052;-55
2023/10/09 15:27:15;;;;;;;9.32;6.28;;;29.60;47.60;;;;;;5015203;28;20037;-53
2023/10/09 15:29:49;;;;;;;12.02;6.72;;;29.60;48.70;;;;;;5018694;28;20049;-51
2023/10/09 15:32:22;;;;;;;9.25;7.38;;;29.50;47.60;;;;;;5014231;28;20455;-51
2023/10/09 15:34:51;;;;;;;9.38;6.85;;;29.50;47.50;;;;;;5015130;28;20128;-50
2023/10/09 15:37:18;;;;;;;8.27;6.53;;;29.30;47.40;;;;;;5018833;28;20053;-53
2023/10/09 15:39:45;;;;;;;12.00;6.55;;;29.20;47.40;;;;;;5026105;28;20042;-52
2023/10/09 15:42:16;;;;;;;8.70;7.07;;;28.90;47.50;;;;;;5021353;28;20087;-53
2023/10/09 15:44:47;;;;;;;8.43;6.47;;;28.70;47.70;;;;;;5015505;28;20121;-53
2023/10/09 15:47:19;;;;;;;9.48;7.03;;;28.30;47.90;;;;;;5010036;28;20056;-54
2023/10/09 15:49:49;;;;;;;8.90;7.00;;;28.00;48.40;;;;;;5010094;28;20044;-53
2023/10/09 15:52:16;;;;;;;11.07;6.82;;;27.70;49.00;;;;;;5009842;28;20506;-54
2023/10/09 15:54:43;;;;;;;10.30;7.78;;;27.40;49.60;;;;;;5007540;28;20050;-54
2023/10/09 15:57:10;;;;;;;10.73;7.50;;;27.10;50.00;;;;;;5016496;28;20057;-52
2023/10/09 15:59:39;;;;;;;11.88;7.00;;;26.80;50.50;;;;;;5015859;28;20138;-54
2023/10/09 16:02:06;;;;;;;9.88;6.75;;;26.60;51.20;;;;;;5017453;28;20042;-50
2023/10/09 16:04:33;;;;;;;9.43;6.68;;;26.40;51.40;;;;;;5013401;28;20057;-50
2023/10/09 16:07:01;;;;;;;8.93;6.63;;;26.20;51.70;;;;;;5015347;28;20077;-52
2023/10/09 16:09:29;;;;;;;12.68;6.78;;;25.90;52.10;;;;;;5016281;28;20049;-53
2023/10/09 16:11:56;;;;;;;9.23;7.00;;;25.80;53.00;;;;;;5021483;28;20033;-51
2023/10/09 16:14:23;;;;;;;8.73;6.75;;;25.60;52.90;;;;;;5027107;28;20450;-50
2023/10/09 16:16:50;;;;;;;10.65;6.40;;;25.50;53.20;;;;;;5017136;28;20069;-48
2023/10/09 16:19:17;;;;;;;9.45;6.88;;;25.40;53.50;;;;;;5013379;28;20042;-50
2023/10/09 16:21:44;;;;;;;10.30;7.03;;;25.20;54.20;;;;;;5018702;28;20459;-49
2023/10/09 16:24:12;;;;;;;9.68;6.20;;;25.10;54.20;;;;;;5014639;28;20120;-49
2023/10/09 16:26:45;;;;;;;8.38;6.18;;;24.90;54.70;;;;;;5023820;28;20045;-51
2023/10/09 16:29:12;;;;;;;11.20;7.82;;;24.80;55.20;;;;;;5015277;28;20037;-49